Time;durP1;ratioP1;P1;durP2;ratioP2;P2;SDS_P1;SDS_P2;PMS_P1;PMS_P2;Temp;Humidity;BMP_temperature;BMP_pressure;BME280_temperature;BME280_humidity;BME280_pressure;Samples;Min_cycle;Max_cycle;Signal;HPM_P1;HPM_P2
2023/03/17 00:00:07;;;;;;;8.80;4.82;;;8.60;99.90;;;;;;5055173;28;20495;-64
2023/03/17 00:02:33;;;;;;;13.52;4.75;;;8.70;1.00;;;;;;5055246;28;20104;-64
2023/03/17 00:04:58;;;;;;;8.05;4.18;;;8.70;2.20;;;;;;5054858;28;20516;-64
2023/03/17 00:07:24;;;;;;;8.38;4.22;;;8.70;1.00;;;;;;5055284;28;20029;-64
2023/03/17 00:09:49;;;;;;;9.45;4.50;;;8.70;1.00;;;;;;5055147;28;20078;-64
2023/03/17 00:12:16;;;;;;;6.53;3.15;;;8.70;1.00;;;;;;5055098;28;20036;-64
2023/03/17 00:14:43;;;;;;;7.45;3.03;;;8.60;1.00;;;;;;5055082;28;20044;-64
2023/03/17 00:17:12;;;;;;;5.65;2.85;;;8.60;44.40;;;;;;5055030;28;20025;-64
2023/03/17 00:19:39;;;;;;;4.70;2.65;;;8.50;99.90;;;;;;5054756;28;20029;-64
2023/03/17 00:22:12;;;;;;;6.53;3.58;;;8.50;99.90;;;;;;5054781;28;20531;-64
2023/03/17 00:24:37;;;;;;;3.05;2.50;;;8.50;99.90;;;;;;5054884;28;20025;-64
2023/03/17 00:27:09;;;;;;;4.63;2.50;;;8.50;14.00;;;;;;5054280;28;20037;-64
2023/03/17 00:29:35;;;;;;;6.50;2.80;;;8.60;1.00;;;;;;5054204;28;20033;-64
2023/03/17 00:32:01;;;;;;;3.90;2.65;;;8.60;1.00;;;;;;5054848;28;20025;-64
2023/03/17 00:34:27;;;;;;;3.58;2.80;;;8.70;1.00;;;;;;5054527;28;20440;-68
2023/03/17 00:36:53;;;;;;;2.97;2.63;;;8.80;99.90;;;;;;5054363;28;20083;-64
2023/03/17 00:39:19;;;;;;;6.38;3.45;;;8.80;99.90;;;;;;5054528;28;20059;-64
2023/03/17 00:41:45;;;;;;;4.07;2.88;;;8.70;1.00;;;;;;5054166;28;20021;-64
2023/03/17 00:44:12;;;;;;;5.85;2.85;;;8.80;99.90;;;;;;5054377;28;20079;-64
2023/03/17 00:46:38;;;;;;;3.58;2.70;;;8.80;99.90;;;;;;5054429;28;20025;-64
2023/03/17 00:49:16;;;;;;;6.00;2.47;;;8.80;99.90;;;;;;5054254;28;20031;-64
2023/03/17 00:51:43;;;;;;;5.55;3.05;;;8.80;99.90;;;;;;5054121;28;20474;-64
2023/03/17 00:54:09;;;;;;;7.88;4.15;;;8.80;99.90;;;;;;5052990;28;20032;-64
2023/03/17 00:56:37;;;;;;;5.22;2.90;;;8.80;99.90;;;;;;5053971;28;20223;-64
2023/03/17 00:59:02;;;;;;;11.98;4.80;;;8.70;99.90;;;;;;5054218;28;20025;-64
2023/03/17 01:01:28;;;;;;;6.35;3.03;;;8.80;99.90;;;;;;5054323;28;20032;-64
2023/03/17 01:03:54;;;;;;;10.73;4.97;;;9.00;99.90;;;;;;5053953;28;20386;-64
2023/03/17 01:06:20;;;;;;;6.50;3.00;;;9.00;99.90;;;;;;5053935;28;20115;-64
2023/03/17 01:08:46;;;;;;;5.15;3.15;;;9.00;99.90;;;;;;5054055;28;20116;-64
2023/03/17 01:11:16;;;;;;;6.85;2.80;;;9.10;99.60;;;;;;5053987;28;20463;-64
2023/03/17 01:13:42;;;;;;;5.38;2.97;;;9.10;36.00;;;;;;5053942;28;20406;-64
2023/03/17 01:16:09;;;;;;;3.70;3.03;;;9.10;49.70;;;;;;5053733;28;20032;-64
2023/03/17 01:18:35;;;;;;;10.40;3.65;;;9.10;25.90;;;;;;5053917;28;20033;-64
2023/03/17 01:21:00;;;;;;;7.07;3.80;;;9.00;26.00;;;;;;5053654;28;20388;-64
2023/03/17 01:23:26;;;;;;;6.82;3.50;;;9.10;50.90;;;;;;5053633;28;20086;-64
2023/03/17 01:25:51;;;;;;;7.75;3.25;;;9.00;48.60;;;;;;5053679;28;20390;-64
2023/03/17 01:28:18;;;;;;;6.25;2.83;;;9.00;40.60;;;;;;5053405;28;20013;-65
2023/03/17 01:30:44;;;;;;;5.07;3.28;;;9.20;1.00;;;;;;5053719;28;20499;-63
2023/03/17 01:33:11;;;;;;;4.25;3.25;;;9.20;1.60;;;;;;5053703;28;20029;-63
2023/03/17 01:35:38;;;;;;;5.25;3.28;;;9.20;1.00;;;;;;5053392;28;20474;-63
2023/03/17 01:38:04;;;;;;;4.05;3.25;;;9.10;85.70;;;;;;5052249;28;20068;-64
2023/03/17 01:40:34;;;;;;;7.22;3.70;;;9.00;99.90;;;;;;5053073;28;20025;-64
2023/03/17 01:46:12;;;;;;;5.00;3.22;;;9.00;37.50;;;;;;5090886;28;20402;-64
2023/03/17 01:48:43;;;;;;;5.03;3.03;;;8.70;99.90;;;;;;5090740;28;20093;-64
2023/03/17 01:51:14;;;;;;;4.30;3.28;;;8.70;99.90;;;;;;5090691;28;20035;-64
2023/03/17 01:53:40;;;;;;;9.40;4.53;;;8.70;99.90;;;;;;5090646;28;20504;-64
2023/03/17 01:56:07;;;;;;;15.27;7.30;;;8.70;1.00;;;;;;5090583;28;20031;-64
2023/03/17 01:58:33;;;;;;;7.85;3.85;;;8.60;1.00;;;;;;5089622;28;20025;-64
2023/03/17 02:01:00;;;;;;;6.00;3.42;;;8.60;1.00;;;;;;5090767;28;20389;-64
2023/03/17 02:03:26;;;;;;;4.50;3.33;;;8.60;22.00;;;;;;5090527;28;20028;-64
2023/03/17 02:05:53;;;;;;;4.90;2.97;;;8.50;99.90;;;;;;5090522;28;20024;-64
2023/03/17 02:08:19;;;;;;;4.90;3.30;;;8.40;99.90;;;;;;5090217;28;20021;-64
2023/03/17 02:10:48;;;;;;;6.10;3.60;;;8.40;99.90;;;;;;5090320;28;20077;-64
2023/03/17 02:13:15;;;;;;;6.63;3.42;;;8.40;1.00;;;;;;5090315;28;20571;-63
2023/03/17 02:15:50;;;;;;;6.55;2.95;;;8.40;1.00;;;;;;5090393;28;20029;-64
2023/03/17 02:18:19;;;;;;;8.07;3.20;;;8.40;99.90;;;;;;5089947;28;20017;-63
2023/03/17 02:23:23;;;;;;;3.50;2.92;;;8.50;99.90;;;;;;5090884;28;20943;-64
2023/03/17 02:25:52;;;;;;;5.38;3.00;;;8.50;99.90;;;;;;5090759;28;20031;-64
2023/03/17 02:28:24;;;;;;;4.80;2.85;;;8.40;99.90;;;;;;5090446;28;20048;-64
2023/03/17 02:30:50;;;;;;;5.67;3.10;;;8.30;99.90;;;;;;5090683;28;20061;-64
2023/03/17 02:33:15;;;;;;;6.47;3.05;;;8.20;1.00;;;;;;5090810;28;20111;-64
2023/03/17 02:35:41;;;;;;;5.13;3.38;;;8.20;1.00;;;;;;5090588;28;20028;-64
2023/03/17 02:38:07;;;;;;;3.90;3.08;;;8.20;1.00;;;;;;5090516;28;20486;-64
2023/03/17 02:40:32;;;;;;;5.63;3.22;;;8.30;1.00;;;;;;5090270;28;20036;-64
2023/03/17 02:42:58;;;;;;;5.00;3.45;;;8.30;1.00;;;;;;5090213;28;20020;-64
2023/03/17 02:45:24;;;;;;;6.28;3.22;;;8.30;99.90;;;;;;5089380;28;20040;-64
2023/03/17 02:47:51;;;;;;;5.90;3.22;;;8.30;99.90;;;;;;5090399;28;20158;-64
2023/03/17 02:50:21;;;;;;;4.30;2.90;;;8.30;99.90;;;;;;5090346;28;20031;-64
2023/03/17 02:52:46;;;;;;;6.53;3.53;;;8.40;99.90;;;;;;5090240;28;20059;-64
2023/03/17 02:55:13;;;;;;;3.55;2.47;;;8.30;99.90;;;;;;5090328;28;20394;-64
2023/03/17 02:57:38;;;;;;;6.65;3.15;;;8.40;99.90;;;;;;5090186;28;20101;-64
2023/03/17 03:00:04;;;;;;;5.47;2.85;;;8.50;1.00;;;;;;5090298;28;20489;-64
2023/03/17 03:02:30;;;;;;;6.78;3.25;;;8.70;99.90;;;;;;5090082;28;20031;-64
2023/03/17 03:04:56;;;;;;;4.30;2.65;;;8.70;99.90;;;;;;5090251;28;20103;-64
2023/03/17 03:07:21;;;;;;;5.28;2.97;;;8.70;99.90;;;;;;5089941;28;20028;-64
2023/03/17 03:09:47;;;;;;;7.05;3.28;;;8.70;99.90;;;;;;5090145;28;20103;-64
2023/03/17 03:12:13;;;;;;;4.70;2.97;;;8.70;99.90;;;;;;5090042;28;20032;-64
2023/03/17 03:14:38;;;;;;;6.43;3.20;;;8.60;99.90;;;;;;5090060;28;20051;-64
2023/03/17 03:17:04;;;;;;;7.80;3.30;;;8.50;99.90;;;;;;5089802;28;20374;-64
2023/03/17 03:19:29;;;;;;;5.60;3.08;;;8.50;99.90;;;;;;5089784;28;20029;-64
2023/03/17 03:21:55;;;;;;;4.53;2.63;;;8.60;99.90;;;;;;5089621;28;20102;-64
2023/03/17 03:24:21;;;;;;;4.30;2.63;;;8.60;99.90;;;;;;5089622;28;20029;-64
2023/03/17 03:26:47;;;;;;;5.78;2.58;;;8.60;99.90;;;;;;5089610;28;20063;-64
2023/03/17 03:29:12;;;;;;;5.25;2.85;;;8.60;99.90;;;;;;5089468;28;20394;-64
2023/03/17 03:31:38;;;;;;;4.90;2.80;;;8.50;99.90;;;;;;5089710;28;20066;-64
2023/03/17 03:34:03;;;;;;;4.18;2.70;;;8.40;99.90;;;;;;5079980;28;20032;-64
2023/03/17 03:36:29;;;;;;;5.72;3.00;;;8.40;99.90;;;;;;5076105;28;20060;-66
2023/03/17 03:38:55;;;;;;;3.47;2.90;;;8.30;99.90;;;;;;5076059;28;20029;-64
2023/03/17 03:41:21;;;;;;;4.60;2.70;;;8.30;1.00;;;;;;5075903;28;20036;-64
2023/03/17 03:43:46;;;;;;;4.35;2.60;;;8.30;1.00;;;;;;5075718;28;20045;-64
2023/03/17 03:46:12;;;;;;;3.75;3.10;;;8.20;1.00;;;;;;5075752;28;20104;-64
2023/03/17 03:48:37;;;;;;;4.55;2.70;;;8.10;35.20;;;;;;5075696;28;20463;-64
2023/03/17 03:51:03;;;;;;;3.95;2.53;;;7.90;99.90;;;;;;5075865;28;20244;-64
2023/03/17 03:53:29;;;;;;;3.78;2.63;;;7.90;99.90;;;;;;5075859;28;20025;-64
2023/03/17 03:55:55;;;;;;;3.88;2.33;;;7.90;99.90;;;;;;5075621;28;20078;-64
2023/03/17 03:58:21;;;;;;;5.57;2.80;;;7.80;99.90;;;;;;5074568;28;20490;-64
2023/03/17 04:00:47;;;;;;;3.63;2.55;;;7.70;1.00;;;;;;5075327;28;20055;-66
2023/03/17 04:03:13;;;;;;;3.60;2.60;;;7.80;1.00;;;;;;5075252;28;20066;-64
2023/03/17 04:05:39;;;;;;;3.55;2.63;;;7.80;1.00;;;;;;5075126;28;20025;-64
2023/03/17 04:08:05;;;;;;;5.10;2.63;;;7.80;1.00;;;;;;5075565;28;20092;-64
2023/03/17 04:10:31;;;;;;;6.53;2.95;;;7.80;1.00;;;;;;5075401;28;20017;-64
2023/03/17 04:12:57;;;;;;;7.65;3.33;;;7.90;99.90;;;;;;5075299;28;20032;-64
2023/03/17 04:15:23;;;;;;;3.92;2.72;;;7.80;1.00;;;;;;5075438;28;20078;-64
2023/03/17 04:17:48;;;;;;;5.40;3.08;;;7.80;1.00;;;;;;5075340;28;20444;-64
2023/03/17 04:20:15;;;;;;;4.68;2.90;;;7.80;1.00;;;;;;5075294;28;20033;-64
2023/03/17 04:22:41;;;;;;;4.75;2.47;;;7.80;99.90;;;;;;5074882;28;20434;-64
2023/03/17 04:25:09;;;;;;;4.28;2.60;;;7.90;99.90;;;;;;5075212;28;20043;-65
2023/03/17 04:27:35;;;;;;;3.67;2.50;;;7.80;99.90;;;;;;5075117;28;20024;-64
2023/03/17 04:30:01;;;;;;;4.35;2.47;;;7.80;99.90;;;;;;5075175;28;20485;-64
2023/03/17 04:32:27;;;;;;;4.65;2.90;;;7.80;99.90;;;;;;5074712;28;20024;-64
2023/03/17 04:34:52;;;;;;;3.47;2.70;;;7.70;99.90;;;;;;5075032;28;20059;-64
2023/03/17 04:37:18;;;;;;;4.82;2.40;;;7.60;1.00;;;;;;5074790;28;20074;-64
2023/03/17 04:39:43;;;;;;;6.75;2.80;;;7.50;1.00;;;;;;5073647;28;20029;-64
2023/03/17 04:42:09;;;;;;;5.82;2.83;;;7.40;99.90;;;;;;5074367;28;20371;-63
2023/03/17 04:44:35;;;;;;;4.28;2.80;;;7.30;99.90;;;;;;5073803;28;20025;-63
2023/03/17 04:47:01;;;;;;;5.28;3.00;;;7.30;99.90;;;;;;5074325;28;20090;-63
2023/03/17 04:49:27;;;;;;;6.10;2.67;;;7.20;1.00;;;;;;5074332;28;20327;-63
2023/03/17 04:51:52;;;;;;;5.20;2.90;;;7.20;30.60;;;;;;5074635;28;20063;-63
2023/03/17 04:54:17;;;;;;;4.90;2.83;;;7.00;99.90;;;;;;5074307;28;20028;-63
2023/03/17 04:56:43;;;;;;;3.47;2.42;;;6.90;99.90;;;;;;5074596;28;20162;-63
2023/03/17 04:59:09;;;;;;;6.38;3.10;;;6.80;1.00;;;;;;5074512;28;20032;-64
2023/03/17 05:01:35;;;;;;;6.28;3.05;;;6.80;1.00;;;;;;5074196;28;20047;-63
2023/03/17 05:04:01;;;;;;;5.65;3.20;;;6.80;1.00;;;;;;5074363;28;20094;-64
2023/03/17 05:06:26;;;;;;;4.82;3.22;;;6.90;1.00;;;;;;5074372;28;20075;-63
2023/03/17 05:08:52;;;;;;;5.47;3.20;;;6.80;1.00;;;;;;5074363;28;20024;-64
2023/03/17 05:11:18;;;;;;;4.57;3.00;;;6.90;99.90;;;;;;5074084;28;20060;-65
2023/03/17 05:13:43;;;;;;;5.50;2.78;;;7.00;99.90;;;;;;5074050;28;20137;-63
2023/03/17 05:16:09;;;;;;;5.15;3.08;;;7.00;99.90;;;;;;5074031;28;20121;-63
2023/03/17 05:18:36;;;;;;;7.85;3.85;;;6.90;1.00;;;;;;5073968;28;20486;-63
2023/03/17 05:21:02;;;;;;;16.15;8.65;;;6.90;1.00;;;;;;5073722;28;20142;-64
2023/03/17 05:23:28;;;;;;;34.03;18.17;;;6.90;1.00;;;;;;5074122;28;20074;-63
2023/03/17 05:25:54;;;;;;;39.47;19.45;;;6.80;1.00;;;;;;5073903;28;20059;-63
2023/03/17 05:28:20;;;;;;;18.23;9.90;;;6.80;99.90;;;;;;5073758;28;20056;-63
2023/03/17 05:30:46;;;;;;;13.32;7.32;;;6.90;1.00;;;;;;5073642;28;20406;-63
2023/03/17 05:33:13;;;;;;;12.40;6.50;;;7.00;99.90;;;;;;5073716;28;20039;-63
2023/03/17 05:35:39;;;;;;;11.88;5.47;;;7.00;99.90;;;;;;5073907;28;20047;-64
2023/03/17 05:38:06;;;;;;;7.72;4.45;;;7.00;99.90;;;;;;5073651;28;20111;-64
2023/03/17 05:40:32;;;;;;;7.00;3.70;;;7.00;99.90;;;;;;5073591;28;20107;-64
2023/03/17 05:42:57;;;;;;;10.13;7.40;;;7.00;99.90;;;;;;5073522;28;20139;-64
2023/03/17 05:45:23;;;;;;;37.90;25.33;;;7.00;99.90;;;;;;5073549;28;20074;-64
2023/03/17 05:47:49;;;;;;;47.75;29.10;;;6.90;99.90;;;;;;5073467;28;20029;-64
2023/03/17 05:50:14;;;;;;;37.40;23.10;;;7.00;99.90;;;;;;5073500;28;20033;-64
2023/03/17 05:52:40;;;;;;;31.38;20.15;;;7.00;99.90;;;;;;5073440;28;20024;-64
2023/03/17 05:55:07;;;;;;;26.00;16.08;;;7.10;1.00;;;;;;5073424;28;20032;-64
2023/03/17 05:57:32;;;;;;;12.68;8.20;;;7.20;1.00;;;;;;5073400;28;20055;-64
2023/03/17 05:59:58;;;;;;;14.35;8.65;;;7.40;99.90;;;;;;5073408;28;20111;-64
2023/03/17 06:02:24;;;;;;;10.40;6.07;;;7.50;22.60;;;;;;5073135;28;20048;-64
2023/03/17 06:04:49;;;;;;;11.02;7.13;;;7.70;1.00;;;;;;5053236;28;20052;-64
2023/03/17 06:07:16;;;;;;;23.95;16.23;;;7.80;99.90;;;;;;5053134;28;20021;-64
2023/03/17 06:09:42;;;;;;;54.47;41.97;;;8.00;99.00;;;;;;5053201;28;20023;-64
2023/03/17 06:12:08;;;;;;;28.88;20.45;;;8.10;1.00;;;;;;5053466;28;20035;-64
2023/03/17 06:14:34;;;;;;;7.15;5.05;;;8.20;99.90;;;;;;5053264;28;20513;-64
2023/03/17 06:17:00;;;;;;;8.55;5.50;;;8.40;99.90;;;;;;5053073;28;20029;-64
2023/03/17 06:19:25;;;;;;;10.77;4.75;;;8.60;99.90;;;;;;5053285;28;20059;-64
2023/03/17 06:21:51;;;;;;;9.30;4.25;;;8.80;1.00;;;;;;5052765;28;20560;-63
2023/03/17 06:24:16;;;;;;;6.00;3.28;;;9.00;99.90;;;;;;5053116;28;20025;-67
2023/03/17 06:26:42;;;;;;;4.85;3.55;;;9.00;21.20;;;;;;5053006;28;20083;-63
2023/03/17 06:29:08;;;;;;;6.18;3.40;;;9.00;1.00;;;;;;5052993;28;20022;-63
2023/03/17 06:31:35;;;;;;;5.57;3.78;;;9.00;1.00;;;;;;5052035;28;20025;-63
2023/03/17 06:34:02;;;;;;;7.03;4.15;;;9.30;14.30;;;;;;5053034;28;20033;-63
2023/03/17 06:36:28;;;;;;;10.52;6.22;;;9.70;1.00;;;;;;5052763;28;20503;-63
2023/03/17 06:38:53;;;;;;;27.63;18.15;;;10.10;99.90;;;;;;5052753;28;20025;-63
2023/03/17 06:41:18;;;;;;;41.90;23.38;;;10.70;1.00;;;;;;5052876;28;20075;-63
2023/03/17 06:43:44;;;;;;;84.45;40.05;;;11.10;99.90;;;;;;5053084;28;20068;-63
2023/03/17 06:46:10;;;;;;;62.75;32.58;;;11.10;99.90;;;;;;5053030;28;20490;-63
2023/03/17 06:48:35;;;;;;;69.55;39.60;;;11.40;99.90;;;;;;5053249;28;20021;-64
2023/03/17 06:51:01;;;;;;;72.28;42.17;;;11.80;92.30;;;;;;5052811;28;20053;-64
2023/03/17 06:53:27;;;;;;;17.90;10.88;;;12.30;93.10;;;;;;5052629;28;20029;-63
2023/03/17 06:55:52;;;;;;;18.08;10.18;;;12.70;1.00;;;;;;5052760;28;20059;-64
2023/03/17 06:58:19;;;;;;;7.85;4.65;;;13.80;99.90;;;;;;5052372;28;20025;-64
2023/03/17 07:00:47;;;;;;;7.57;4.72;;;14.90;85.50;;;;;;5052458;28;20116;-64
2023/03/17 07:03:14;;;;;;;9.48;4.25;;;15.70;1.00;;;;;;5052459;28;20391;-64
2023/03/17 07:05:40;;;;;;;8.85;4.18;;;16.80;1.00;;;;;;5052796;28;20497;-64
2023/03/17 07:08:06;;;;;;;9.70;4.00;;;17.40;99.90;;;;;;5053088;28;20063;-64
2023/03/17 07:10:32;;;;;;;8.38;4.15;;;17.20;99.90;;;;;;5056407;28;20498;-64
2023/03/17 07:12:58;;;;;;;7.25;3.67;;;16.70;99.90;;;;;;5056178;28;20364;-66
2023/03/17 07:15:24;;;;;;;7.93;3.60;;;16.80;99.90;;;;;;5056207;28;20103;-65
2023/03/17 07:17:50;;;;;;;9.20;3.50;;;17.30;99.90;;;;;;5056416;28;20082;-65
2023/03/17 07:20:15;;;;;;;5.50;3.10;;;17.20;99.90;;;;;;5056132;28;20029;-65
2023/03/17 07:22:41;;;;;;;6.07;3.08;;;16.70;99.90;;;;;;5055997;28;20056;-65
2023/03/17 07:25:08;;;;;;;9.23;3.05;;;16.50;99.90;;;;;;5056127;28;20020;-67
2023/03/17 07:27:34;;;;;;;4.93;3.30;;;16.30;99.90;;;;;;5055720;28;20021;-65
2023/03/17 07:30:03;;;;;;;5.78;2.80;;;16.60;99.90;;;;;;5056030;28;20543;-65
2023/03/17 07:32:29;;;;;;;5.47;3.15;;;16.80;99.90;;;;;;5055806;28;20538;-65
2023/03/17 07:34:55;;;;;;;4.10;2.80;;;17.60;99.90;;;;;;5055864;28;20044;-65
2023/03/17 07:37:22;;;;;;;5.75;3.38;;;18.10;99.90;;;;;;5055675;28;20113;-66
2023/03/17 07:39:47;;;;;;;6.25;3.50;;;18.80;99.90;;;;;;5055714;28;20389;-65
2023/03/17 07:42:14;;;;;;;4.68;3.30;;;19.30;99.90;;;;;;5055588;28;20021;-65
2023/03/17 07:44:40;;;;;;;9.75;2.85;;;19.30;99.90;;;;;;5055545;28;20028;-65
2023/03/17 07:47:07;;;;;;;5.28;2.95;;;19.80;99.90;;;;;;5055461;28;20036;-65
2023/03/17 07:49:33;;;;;;;7.25;3.25;;;19.80;99.90;;;;;;5055950;28;20029;-65
2023/03/17 07:51:58;;;;;;;5.25;2.70;;;19.50;99.90;;;;;;5055616;28;20071;-65
2023/03/17 07:54:26;;;;;;;6.50;2.63;;;19.60;99.90;;;;;;5055558;28;20056;-65
2023/03/17 07:56:52;;;;;;;4.82;2.88;;;19.40;99.90;;;;;;5055386;28;20024;-65
2023/03/17 07:59:18;;;;;;;5.95;2.67;;;19.00;99.90;;;;;;5055534;28;20029;-65
2023/03/17 08:01:43;;;;;;;5.10;3.03;;;18.50;99.90;;;;;;5055351;28;20390;-65
2023/03/17 08:04:11;;;;;;;5.85;3.08;;;18.20;99.90;;;;;;5055652;28;20032;-65
2023/03/17 08:06:39;;;;;;;4.25;2.92;;;17.60;99.90;;;;;;5055334;28;20021;-64
2023/03/17 08:09:05;;;;;;;4.38;2.78;;;17.30;99.90;;;;;;5055349;28;20029;-64
2023/03/17 08:11:30;;;;;;;4.75;2.72;;;17.60;99.90;;;;;;5055392;28;20417;-65
2023/03/17 08:13:56;;;;;;;3.85;2.83;;;17.00;99.90;;;;;;5055230;28;20032;-64
2023/03/17 08:16:22;;;;;;;7.63;3.03;;;17.50;99.90;;;;;;5055016;28;20039;-65
2023/03/17 08:18:47;;;;;;;6.00;2.88;;;17.70;99.90;;;;;;5055206;28;20033;-65
2023/03/17 08:21:13;;;;;;;10.85;3.13;;;18.20;99.90;;;;;;5054747;28;20383;-65
2023/03/17 08:23:38;;;;;;;3.63;2.47;;;18.50;99.90;;;;;;5055101;28;20100;-65
2023/03/17 08:26:04;;;;;;;7.25;2.80;;;19.20;99.90;;;;;;5055148;28;20039;-65
2023/03/17 08:28:30;;;;;;;5.20;2.42;;;18.60;99.90;;;;;;5055165;28;20028;-65
2023/03/17 08:31:17;;;;;;;3.42;2.95;;;18.50;99.90;;;;;;5054814;28;20021;-65
2023/03/17 08:33:47;;;;;;;4.80;2.55;;;18.40;99.90;;;;;;5054705;28;20372;-65
2023/03/17 08:36:13;;;;;;;3.63;2.50;;;17.70;99.90;;;;;;5054836;28;20147;-65
2023/03/17 08:38:40;;;;;;;11.52;2.80;;;17.40;99.90;;;;;;5054775;28;20028;-65
2023/03/17 08:41:09;;;;;;;6.30;2.67;;;17.50;99.90;;;;;;5054623;28;20029;-68
2023/03/17 08:43:35;;;;;;;7.20;2.97;;;17.30;99.90;;;;;;5054701;28;20037;-64
2023/03/17 08:46:08;;;;;;;4.53;2.90;;;17.60;99.90;;;;;;5054138;28;20391;-64
2023/03/17 08:48:36;;;;;;;7.15;3.17;;;17.50;99.90;;;;;;5053566;28;20505;-65
2023/03/17 08:51:03;;;;;;;9.23;3.03;;;17.50;99.90;;;;;;5054414;28;20036;-65
2023/03/17 08:53:29;;;;;;;5.57;3.00;;;17.80;99.90;;;;;;5054266;28;20028;-64
2023/03/17 08:55:55;;;;;;;7.03;3.30;;;17.80;99.90;;;;;;5054185;28;20498;-64
2023/03/17 08:58:22;;;;;;;6.07;3.40;;;17.70;99.90;;;;;;5053910;28;20029;-64
2023/03/17 09:00:47;;;;;;;6.38;3.45;;;17.50;99.90;;;;;;5054214;28;20032;-64
2023/03/17 09:03:14;;;;;;;6.80;2.70;;;17.50;99.90;;;;;;5053923;28;20024;-65
2023/03/17 09:05:41;;;;;;;5.43;2.72;;;17.80;99.90;;;;;;5053944;28;20100;-64
2023/03/17 09:08:08;;;;;;;6.63;3.10;;;17.90;99.90;;;;;;5054031;28;20040;-64
2023/03/17 09:10:35;;;;;;;7.15;3.10;;;18.40;99.90;;;;;;5054245;28;20064;-65
2023/03/17 09:13:03;;;;;;;5.18;2.22;;;18.90;99.90;;;;;;5054113;28;20029;-64
2023/03/17 09:15:30;;;;;;;5.07;2.58;;;18.80;99.90;;;;;;5053897;28;20078;-65
2023/03/17 09:17:56;;;;;;;5.68;2.88;;;19.00;99.90;;;;;;5054032;28;20033;-64
2023/03/17 09:20:21;;;;;;;3.30;2.28;;;19.10;99.90;;;;;;5053740;28;20036;-64
2023/03/17 09:22:48;;;;;;;4.50;2.67;;;18.00;99.90;;;;;;5053476;28;20053;-64
2023/03/17 09:25:14;;;;;;;5.28;2.65;;;17.80;99.90;;;;;;5053744;28;20029;-64
2023/03/17 09:27:40;;;;;;;5.50;2.63;;;17.50;99.90;;;;;;5053715;28;20028;-64
2023/03/17 09:30:09;;;;;;;6.40;2.53;;;18.00;99.90;;;;;;5053945;28;20394;-65
2023/03/17 09:32:35;;;;;;;5.00;2.58;;;17.70;99.90;;;;;;5053207;28;20036;-65
2023/03/17 09:35:00;;;;;;;4.45;2.70;;;18.00;99.90;;;;;;5053895;28;20033;-64
2023/03/17 09:37:26;;;;;;;5.65;2.38;;;18.40;99.90;;;;;;5053494;28;20071;-64
2023/03/17 09:39:52;;;;;;;3.95;2.50;;;18.50;99.90;;;;;;5053732;28;20391;-64
2023/03/17 09:42:35;;;;;;;6.90;2.65;;;19.50;99.90;;;;;;5053459;28;20438;-65
2023/03/17 09:45:21;;;;;;;;;;;20.20;99.90;;;;;;5053726;28;20021;-64
2023/03/17 09:48:15;;;;;;;5.82;2.58;;;20.50;99.90;;;;;;5053316;28;19904;-65
2023/03/17 09:50:52;;;;;;;8.13;2.92;;;20.10;99.90;;;;;;5053422;28;20033;-65
2023/03/17 09:53:26;;;;;;;4.35;2.50;;;18.90;99.90;;;;;;5052951;28;20478;-65
2023/03/17 09:55:56;;;;;;;5.10;2.60;;;18.60;99.90;;;;;;5053431;28;20478;-67
2023/03/17 09:58:29;;;;;;;6.93;2.65;;;19.20;99.90;;;;;;5053372;28;20076;-64
2023/03/17 10:00:55;;;;;;;6.85;3.28;;;18.90;99.90;;;;;;5053103;28;20116;-65
2023/03/17 10:03:21;;;;;;;6.60;2.95;;;19.20;99.90;;;;;;5052661;28;20554;-64
2023/03/17 10:05:47;;;;;;;6.80;2.63;;;19.30;99.90;;;;;;5053018;28;20072;-64
2023/03/17 10:08:21;;;;;;;5.13;3.03;;;20.10;99.90;;;;;;5053242;28;20429;-65
2023/03/17 10:11:15;;;;;;;4.05;2.58;;;20.30;99.90;;;;;;5053232;28;20052;-65
2023/03/17 10:13:56;;;;;;;6.18;2.85;;;20.40;99.90;;;;;;5053184;28;20075;-65
2023/03/17 10:16:37;;;;;;;7.00;2.60;;;20.50;99.90;;;;;;5053222;28;20033;-65
2023/03/17 10:19:16;;;;;;;6.50;2.72;;;20.50;99.90;;;;;;5053165;28;20021;-64
2023/03/17 10:22:03;;;;;;;5.90;2.25;;;20.60;99.90;;;;;;5052876;28;20044;-65
2023/03/17 10:24:31;;;;;;;5.57;2.83;;;21.10;99.90;;;;;;5053008;28;20522;-64
2023/03/17 10:27:03;;;;;;;6.05;2.88;;;20.70;99.90;;;;;;5052630;28;20028;-64
2023/03/17 10:29:30;;;;;;;6.45;2.95;;;19.80;99.90;;;;;;5053395;28;20445;-64
2023/03/17 10:31:56;;;;;;;4.63;2.72;;;20.30;99.90;;;;;;5052527;28;20025;-64
2023/03/17 10:34:27;;;;;;;6.35;2.53;;;20.00;99.90;;;;;;5052866;28;20040;-64
2023/03/17 10:36:59;;;;;;;4.65;2.47;;;19.70;99.90;;;;;;5052588;28;20021;-64
2023/03/17 10:39:25;;;;;;;5.90;2.40;;;19.60;99.90;;;;;;5052927;28;20029;-65
2023/03/17 10:41:56;;;;;;;6.40;2.28;;;20.00;99.90;;;;;;5052868;28;20056;-64
2023/03/17 10:44:38;;;;;;;5.43;1.95;;;19.20;99.90;;;;;;5055515;28;20036;-64
2023/03/17 10:47:04;;;;;;;4.47;2.65;;;19.50;99.90;;;;;;5056995;28;20031;-64
2023/03/17 10:49:34;;;;;;;6.55;3.33;;;19.70;99.90;;;;;;5056868;28;20542;-67
2023/03/17 10:52:06;;;;;;;9.05;3.13;;;20.40;99.90;;;;;;5056557;28;20025;-64
2023/03/17 10:54:34;;;;;;;4.40;2.80;;;20.30;99.90;;;;;;5056679;28;20530;-64
2023/03/17 10:57:05;;;;;;;7.45;2.60;;;20.80;99.90;;;;;;5056978;28;20056;-64
2023/03/17 10:59:36;;;;;;;7.45;3.10;;;20.80;99.90;;;;;;5057478;28;20547;-64
2023/03/17 11:02:16;;;;;;;7.32;3.10;;;20.50;99.90;;;;;;5057097;28;20029;-64
2023/03/17 11:04:42;;;;;;;5.15;3.20;;;20.50;99.90;;;;;;5056991;28;20387;-65
2023/03/17 11:07:17;;;;;;;5.55;3.08;;;19.70;99.90;;;;;;5057813;28;20108;-64
2023/03/17 11:09:42;;;;;;;6.68;3.03;;;19.60;99.90;;;;;;5057417;28;20088;-65
2023/03/17 11:12:27;;;;;;;3.90;2.55;;;19.60;99.90;;;;;;5058535;28;20457;-65
2023/03/17 11:14:59;;;;;;;4.35;3.03;;;19.20;99.90;;;;;;5057061;28;20973;-65
2023/03/17 11:18:02;;;;;;;7.57;2.85;;;19.40;99.90;;;;;;5057577;28;20032;-64
2023/03/17 11:20:57;;;;;;;5.75;2.90;;;19.50;99.90;;;;;;5056600;28;20502;-65
2023/03/17 11:23:46;;;;;;;5.32;3.08;;;19.20;99.90;;;;;;5056952;28;20047;-65
2023/03/17 11:26:27;;;;;;;8.90;3.00;;;19.10;99.90;;;;;;5056053;28;20395;-64
2023/03/17 11:32:21;;;;;;;5.13;2.70;;;19.10;99.90;;;;;;5111068;27;20408;-65
2023/03/17 11:35:11;;;;;;;4.72;3.10;;;18.50;99.90;;;;;;5110945;28;20031;-64
2023/03/17 11:37:56;;;;;;;5.88;2.30;;;18.50;99.90;;;;;;5110877;28;20504;-64
2023/03/17 11:40:50;;;;;;;4.20;2.53;;;18.70;99.90;;;;;;5111069;28;20107;-65
2023/03/17 11:43:32;;;;;;;8.65;3.17;;;19.20;99.90;;;;;;5111012;28;20024;-64
2023/03/17 11:46:11;;;;;;;9.23;3.20;;;19.50;99.90;;;;;;5110979;28;20491;-64
2023/03/17 11:49:03;;;;;;;6.00;2.78;;;19.50;99.90;;;;;;5110935;28;20102;-64
2023/03/17 11:51:51;;;;;;;4.82;2.92;;;19.80;99.90;;;;;;5110338;28;20447;-64
2023/03/17 11:54:45;;;;;;;5.82;2.42;;;19.90;99.90;;;;;;5110792;28;20028;-65
2023/03/17 11:57:22;;;;;;;4.53;2.58;;;20.20;99.90;;;;;;5110755;28;20028;-65
2023/03/17 11:59:57;;;;;;;6.85;2.53;;;20.10;99.90;;;;;;5110559;28;20031;-64
2023/03/17 12:02:32;;;;;;;5.20;2.80;;;20.20;99.90;;;;;;5110301;28;20024;-64
2023/03/17 12:05:04;;;;;;;4.70;2.30;;;19.90;99.90;;;;;;5110175;28;20024;-64
2023/03/17 12:07:45;;;;;;;6.25;2.78;;;19.60;99.90;;;;;;5110438;28;20028;-64
2023/03/17 12:10:24;;;;;;;6.68;2.90;;;19.40;99.90;;;;;;5110406;28;20055;-65
2023/03/17 12:12:55;;;;;;;6.55;2.72;;;19.70;99.90;;;;;;5110188;28;20081;-65
2023/03/17 12:15:33;;;;;;;6.03;2.72;;;19.60;99.90;;;;;;5110328;28;20028;-65
2023/03/17 12:18:14;;;;;;;7.05;2.90;;;19.40;99.90;;;;;;5110187;28;20102;-66
2023/03/17 12:20:50;;;;;;;6.22;2.88;;;19.50;99.90;;;;;;5110412;28;20375;-65
2023/03/17 12:23:37;;;;;;;7.80;2.90;;;19.40;99.90;;;;;;5110358;28;20443;-64
2023/03/17 12:26:11;;;;;;;5.00;2.58;;;19.20;99.90;;;;;;5110089;28;20501;-65
2023/03/17 12:28:47;;;;;;;2.85;2.50;;;19.20;99.90;;;;;;5109766;28;20111;-65
2023/03/17 12:31:24;;;;;;;5.40;2.92;;;19.20;99.90;;;;;;5109769;28;20040;-64
2023/03/17 12:34:14;;;;;;;6.47;2.90;;;19.30;99.90;;;;;;5110116;28;20027;-65
2023/03/17 12:36:41;;;;;;;8.43;2.90;;;19.40;99.90;;;;;;5109888;28;20024;-64
2023/03/17 12:39:12;;;;;;;4.60;2.70;;;19.00;99.90;;;;;;5109986;28;20389;-65
2023/03/17 12:48:20;;;;;;;5.10;2.85;;;18.90;99.90;;;;;;5111021;27;20380;-65
2023/03/17 12:51:12;;;;;;;6.38;2.80;;;18.70;99.90;;;;;;5110970;28;20484;-64
2023/03/17 12:53:41;;;;;;;5.63;2.90;;;18.60;99.90;;;;;;5110970;28;20032;-65
2023/03/17 12:56:19;;;;;;;6.70;2.88;;;18.60;99.90;;;;;;5111178;28;20109;-64
2023/03/17 12:58:48;;;;;;;5.30;3.22;;;18.70;99.90;;;;;;5111004;28;20469;-64
2023/03/17 13:04:03;;;;;;;6.15;2.60;;;18.80;99.90;;;;;;5070582;28;20383;-64
2023/03/17 13:06:34;;;;;;;5.80;2.63;;;18.80;99.90;;;;;;5070424;28;20025;-65
2023/03/17 13:09:32;;;;;;;3.63;2.58;;;18.90;99.90;;;;;;5070299;28;20033;-65
2023/03/17 13:12:00;;;;;;;4.10;2.88;;;19.00;99.90;;;;;;5070251;28;20056;-65
2023/03/17 13:14:43;;;;;;;8.40;2.80;;;19.00;99.90;;;;;;5070428;28;20035;-65
2023/03/17 13:20:17;;;;;;;4.63;2.30;;;19.10;99.90;;;;;;5070553;28;20379;-63
2023/03/17 13:25:52;;;;;;;5.68;2.30;;;18.90;99.90;;;;;;5111008;27;20377;-64